METAR

TAF

 




Curitiba / Bacacheri, PR - SBBI


24 de Abril de 2014 às 01:00 (UTC)


Tempo:

Céu nublado

Temperatura:

14ºC

Umidade Relativa:

94%

Localização:
Ajuste do Altímetro:

1022 hPa

Visibilidade Horizontal Predominante:

9000 m

Direção e Velocidade do Vento:

160° 7,41 Km/h


Observação Meteorológica:

METAR SBBI 240100Z 16004KT 9000 SCT003 BKN006 OVC008 14/13 Q1022=